sensor_id;sensor_type;location;lat;lon;timestamp;temperature;humidity
22321;DHT22;11328;53.928;18.522;2023-05-08T00:02:04;9.20;94.40
22321;DHT22;11328;53.928;18.522;2023-05-08T00:04:31;9.20;94.20
22321;DHT22;11328;53.928;18.522;2023-05-08T00:06:58;9.10;94.40
22321;DHT22;11328;53.928;18.522;2023-05-08T00:09:25;9.10;94.20
22321;DHT22;11328;53.928;18.522;2023-05-08T00:11:52;9.00;94.40
22321;DHT22;11328;53.928;18.522;2023-05-08T00:14:19;8.90;94.50
22321;DHT22;11328;53.928;18.522;2023-05-08T00:16:46;8.90;94.40
22321;DHT22;11328;53.928;18.522;2023-05-08T00:19:13;8.90;94.60
22321;DHT22;11328;53.928;18.522;2023-05-08T00:21:40;8.80;94.60
22321;DHT22;11328;53.928;18.522;2023-05-08T00:24:07;8.80;94.70
22321;DHT22;11328;53.928;18.522;2023-05-08T00:26:34;8.80;94.70
22321;DHT22;11328;53.928;18.522;2023-05-08T00:29:00;8.80;94.70
22321;DHT22;11328;53.928;18.522;2023-05-08T00:31:27;8.80;94.60
22321;DHT22;11328;53.928;18.522;2023-05-08T00:33:54;8.80;94.50
22321;DHT22;11328;53.928;18.522;2023-05-08T00:36:21;8.70;94.80
22321;DHT22;11328;53.928;18.522;2023-05-08T00:38:48;8.70;94.80
22321;DHT22;11328;53.928;18.522;2023-05-08T00:41:15;8.70;94.90
22321;DHT22;11328;53.928;18.522;2023-05-08T00:43:42;8.60;94.70
22321;DHT22;11328;53.928;18.522;2023-05-08T00:46:09;8.60;95.00
22321;DHT22;11328;53.928;18.522;2023-05-08T00:48:37;8.50;95.00
22321;DHT22;11328;53.928;18.522;2023-05-08T00:51:07;8.40;95.10
22321;DHT22;11328;53.928;18.522;2023-05-08T00:53:39;8.30;95.20
22321;DHT22;11328;53.928;18.522;2023-05-08T00:56:13;8.20;95.50
22321;DHT22;11328;53.928;18.522;2023-05-08T00:58:41;8.10;95.50
22321;DHT22;11328;53.928;18.522;2023-05-08T01:01:10;8.10;95.60
22321;DHT22;11328;53.928;18.522;2023-05-08T01:03:37;8.00;95.80
22321;DHT22;11328;53.928;18.522;2023-05-08T01:06:05;7.90;95.80
22321;DHT22;11328;53.928;18.522;2023-05-08T01:08:33;7.80;96.10
22321;DHT22;11328;53.928;18.522;2023-05-08T01:11:15;7.70;96.30
22321;DHT22;11328;53.928;18.522;2023-05-08T01:14:10;7.70;96.20
22321;DHT22;11328;53.928;18.522;2023-05-08T01:35:22;6.90;99.20
22321;DHT22;11328;53.928;18.522;2023-05-08T01:37:56;6.80;99.00
22321;DHT22;11328;53.928;18.522;2023-05-08T01:43:43;6.70;99.80
22321;DHT22;11328;53.928;18.522;2023-05-08T01:46:22;6.60;99.90
22321;DHT22;11328;53.928;18.522;2023-05-08T01:49:05;6.50;99.90
22321;DHT22;11328;53.928;18.522;2023-05-08T01:51:44;6.40;99.90
22321;DHT22;11328;53.928;18.522;2023-05-08T01:54:16;6.30;99.90
22321;DHT22;11328;53.928;18.522;2023-05-08T01:56:49;6.20;99.90
22321;DHT22;11328;53.928;18.522;2023-05-08T01:59:22;6.20;99.90
22321;DHT22;11328;53.928;18.522;2023-05-08T02:01:54;6.30;99.90
22321;DHT22;11328;53.928;18.522;2023-05-08T02:04:23;6.20;99.90
22321;DHT22;11328;53.928;18.522;2023-05-08T02:06:51;6.10;99.90
22321;DHT22;11328;53.928;18.522;2023-05-08T02:09:22;6.00;99.90
22321;DHT22;11328;53.928;18.522;2023-05-08T02:11:53;5.90;99.90
22321;DHT22;11328;53.928;18.522;2023-05-08T02:14:21;5.80;99.90
22321;DHT22;11328;53.928;18.522;2023-05-08T02:16:51;5.70;99.90
22321;DHT22;11328;53.928;18.522;2023-05-08T02:19:22;5.70;99.90
22321;DHT22;11328;53.928;18.522;2023-05-08T02:21:53;5.70;99.90
22321;DHT22;11328;53.928;18.522;2023-05-08T02:24:23;5.70;99.90
22321;DHT22;11328;53.928;18.522;2023-05-08T02:26:52;5.70;99.90
22321;DHT22;11328;53.928;18.522;2023-05-08T02:29:21;5.80;99.90
22321;DHT22;11328;53.928;18.522;2023-05-08T02:31:51;5.80;99.90
22321;DHT22;11328;53.928;18.522;2023-05-08T02:34:20;5.80;99.90
22321;DHT22;11328;53.928;18.522;2023-05-08T02:36:53;5.80;99.90
22321;DHT22;11328;53.928;18.522;2023-05-08T02:39:27;5.60;99.90
22321;DHT22;11328;53.928;18.522;2023-05-08T02:41:57;5.40;99.90
22321;DHT22;11328;53.928;18.522;2023-05-08T02:44:24;5.30;99.90
22321;DHT22;11328;53.928;18.522;2023-05-08T02:50:08;5.40;99.90
22321;DHT22;11328;53.928;18.522;2023-05-08T02:52:47;5.40;99.90
22321;DHT22;11328;53.928;18.522;2023-05-08T02:58:16;5.10;99.90
22321;DHT22;11328;53.928;18.522;2023-05-08T03:01:07;5.00;99.90
22321;DHT22;11328;53.928;18.522;2023-05-08T03:03:44;5.00;99.90
22321;DHT22;11328;53.928;18.522;2023-05-08T03:06:21;4.80;99.90
22321;DHT22;11328;53.928;18.522;2023-05-08T03:08:50;4.70;99.90
22321;DHT22;11328;53.928;18.522;2023-05-08T03:11:24;4.70;99.90
22321;DHT22;11328;53.928;18.522;2023-05-08T03:13:57;4.60;99.90
22321;DHT22;11328;53.928;18.522;2023-05-08T03:16:31;4.60;99.90
22321;DHT22;11328;53.928;18.522;2023-05-08T03:19:04;4.60;99.90
22321;DHT22;11328;53.928;18.522;2023-05-08T03:21:37;4.60;99.90
22321;DHT22;11328;53.928;18.522;2023-05-08T03:24:08;4.60;99.90
22321;DHT22;11328;53.928;18.522;2023-05-08T03:26:35;4.60;99.90
22321;DHT22;11328;53.928;18.522;2023-05-08T03:29:08;4.50;99.90
22321;DHT22;11328;53.928;18.522;2023-05-08T03:31:36;4.60;99.90
22321;DHT22;11328;53.928;18.522;2023-05-08T03:34:04;4.60;99.90
22321;DHT22;11328;53.928;18.522;2023-05-08T03:36:32;4.60;99.90
22321;DHT22;11328;53.928;18.522;2023-05-08T03:38:59;4.60;99.90
22321;DHT22;11328;53.928;18.522;2023-05-08T03:41:27;4.60;99.90
22321;DHT22;11328;53.928;18.522;2023-05-08T03:43:55;4.60;99.90
22321;DHT22;11328;53.928;18.522;2023-05-08T03:46:23;4.60;99.90
22321;DHT22;11328;53.928;18.522;2023-05-08T03:48:52;4.60;99.90
22321;DHT22;11328;53.928;18.522;2023-05-08T03:51:20;4.60;99.90
22321;DHT22;11328;53.928;18.522;2023-05-08T03:53:48;4.60;99.90
22321;DHT22;11328;53.928;18.522;2023-05-08T03:56:15;4.60;99.90
22321;DHT22;11328;53.928;18.522;2023-05-08T03:59:15;4.70;99.90
22321;DHT22;11328;53.928;18.522;2023-05-08T04:02:28;4.80;99.90
22321;DHT22;11328;53.928;18.522;2023-05-08T04:04:58;4.80;99.90
22321;DHT22;11328;53.928;18.522;2023-05-08T04:08:14;4.90;99.90
22321;DHT22;11328;53.928;18.522;2023-05-08T04:10:36;5.00;99.90
22321;DHT22;11328;53.928;18.522;2023-05-08T04:13:12;5.00;99.90
22321;DHT22;11328;53.928;18.522;2023-05-08T04:15:58;5.10;99.90
22321;DHT22;11328;53.928;18.522;2023-05-08T04:18:35;5.20;99.90
22321;DHT22;11328;53.928;18.522;2023-05-08T04:21:07;5.40;99.90
22321;DHT22;11328;53.928;18.522;2023-05-08T04:23:38;5.50;99.90
22321;DHT22;11328;53.928;18.522;2023-05-08T04:26:07;5.70;99.90
22321;DHT22;11328;53.928;18.522;2023-05-08T04:28:37;5.90;99.90
22321;DHT22;11328;53.928;18.522;2023-05-08T04:31:05;6.10;99.90
22321;DHT22;11328;53.928;18.522;2023-05-08T04:33:34;6.20;99.90
22321;DHT22;11328;53.928;18.522;2023-05-08T04:36:02;6.30;99.90
22321;DHT22;11328;53.928;18.522;2023-05-08T04:38:29;6.50;99.90
22321;DHT22;11328;53.928;18.522;2023-05-08T04:40:56;6.60;99.90
22321;DHT22;11328;53.928;18.522;2023-05-08T04:43:23;6.80;99.90
22321;DHT22;11328;53.928;18.522;2023-05-08T04:45:50;6.90;99.90
22321;DHT22;11328;53.928;18.522;2023-05-08T04:48:17;7.00;99.90
22321;DHT22;11328;53.928;18.522;2023-05-08T04:50:44;7.10;99.90
22321;DHT22;11328;53.928;18.522;2023-05-08T04:53:11;7.20;99.90
22321;DHT22;11328;53.928;18.522;2023-05-08T04:55:38;7.20;99.90
22321;DHT22;11328;53.928;18.522;2023-05-08T04:58:05;7.40;99.90
22321;DHT22;11328;53.928;18.522;2023-05-08T05:00:33;7.60;99.90
22321;DHT22;11328;53.928;18.522;2023-05-08T05:03:01;7.90;99.90
22321;DHT22;11328;53.928;18.522;2023-05-08T05:05:28;8.00;99.90
22321;DHT22;11328;53.928;18.522;2023-05-08T05:07:54;8.20;99.90
22321;DHT22;11328;53.928;18.522;2023-05-08T05:10:21;8.40;99.90
22321;DHT22;11328;53.928;18.522;2023-05-08T05:12:48;8.60;99.90
22321;DHT22;11328;53.928;18.522;2023-05-08T05:15:15;8.80;99.90
22321;DHT22;11328;53.928;18.522;2023-05-08T05:17:42;8.90;99.90
22321;DHT22;11328;53.928;18.522;2023-05-08T05:20:10;9.10;99.90
22321;DHT22;11328;53.928;18.522;2023-05-08T05:22:37;9.30;99.90
22321;DHT22;11328;53.928;18.522;2023-05-08T05:25:04;9.50;99.90
22321;DHT22;11328;53.928;18.522;2023-05-08T05:27:34;9.70;99.90
22321;DHT22;11328;53.928;18.522;2023-05-08T05:30:02;9.90;99.90
22321;DHT22;11328;53.928;18.522;2023-05-08T05:32:30;10.00;99.90
22321;DHT22;11328;53.928;18.522;2023-05-08T05:34:57;10.20;99.90
22321;DHT22;11328;53.928;18.522;2023-05-08T05:37:24;10.40;99.90
22321;DHT22;11328;53.928;18.522;2023-05-08T05:39:50;10.60;99.90
22321;DHT22;11328;53.928;18.522;2023-05-08T05:42:17;10.70;99.90
22321;DHT22;11328;53.928;18.522;2023-05-08T05:44:44;10.80;99.90
22321;DHT22;11328;53.928;18.522;2023-05-08T05:47:11;11.10;99.90
22321;DHT22;11328;53.928;18.522;2023-05-08T05:49:38;11.20;99.90
22321;DHT22;11328;53.928;18.522;2023-05-08T05:52:08;11.30;99.90
22321;DHT22;11328;53.928;18.522;2023-05-08T05:54:35;11.50;99.90
22321;DHT22;11328;53.928;18.522;2023-05-08T05:57:02;11.80;99.90
22321;DHT22;11328;53.928;18.522;2023-05-08T05:59:30;11.90;99.90
22321;DHT22;11328;53.928;18.522;2023-05-08T06:01:57;11.90;99.90
22321;DHT22;11328;53.928;18.522;2023-05-08T06:04:24;12.20;99.90
22321;DHT22;11328;53.928;18.522;2023-05-08T06:06:52;12.20;99.90
22321;DHT22;11328;53.928;18.522;2023-05-08T06:09:18;12.40;99.90
22321;DHT22;11328;53.928;18.522;2023-05-08T06:11:46;12.50;99.90
22321;DHT22;11328;53.928;18.522;2023-05-08T06:14:13;12.80;99.90
22321;DHT22;11328;53.928;18.522;2023-05-08T06:16:39;13.00;99.90
22321;DHT22;11328;53.928;18.522;2023-05-08T06:19:07;13.40;99.90
22321;DHT22;11328;53.928;18.522;2023-05-08T06:21:33;13.70;99.90
22321;DHT22;11328;53.928;18.522;2023-05-08T06:24:00;13.80;99.90
22321;DHT22;11328;53.928;18.522;2023-05-08T06:26:27;14.00;99.90
22321;DHT22;11328;53.928;18.522;2023-05-08T06:28:54;14.20;99.90
22321;DHT22;11328;53.928;18.522;2023-05-08T06:31:22;14.40;99.00
22321;DHT22;11328;53.928;18.522;2023-05-08T06:33:49;14.50;99.00
22321;DHT22;11328;53.928;18.522;2023-05-08T06:36:16;14.60;98.40
22321;DHT22;11328;53.928;18.522;2023-05-08T06:38:43;14.60;98.60
22321;DHT22;11328;53.928;18.522;2023-05-08T06:41:10;15.00;98.50
22321;DHT22;11328;53.928;18.522;2023-05-08T06:43:40;15.30;98.70
22321;DHT22;11328;53.928;18.522;2023-05-08T06:46:07;15.50;96.60
22321;DHT22;11328;53.928;18.522;2023-05-08T06:48:34;15.60;95.70
22321;DHT22;11328;53.928;18.522;2023-05-08T06:51:01;15.70;96.10
22321;DHT22;11328;53.928;18.522;2023-05-08T06:53:29;15.80;95.80
22321;DHT22;11328;53.928;18.522;2023-05-08T06:55:56;16.00;95.40
22321;DHT22;11328;53.928;18.522;2023-05-08T06:58:24;16.30;95.50
22321;DHT22;11328;53.928;18.522;2023-05-08T07:00:51;16.50;94.10
22321;DHT22;11328;53.928;18.522;2023-05-08T07:03:18;16.80;93.90
22321;DHT22;11328;53.928;18.522;2023-05-08T07:05:45;17.00;94.70
22321;DHT22;11328;53.928;18.522;2023-05-08T07:08:11;17.20;92.60
22321;DHT22;11328;53.928;18.522;2023-05-08T07:10:38;17.30;93.30
22321;DHT22;11328;53.928;18.522;2023-05-08T07:13:05;17.60;93.80
22321;DHT22;11328;53.928;18.522;2023-05-08T07:15:32;17.90;93.40
22321;DHT22;11328;53.928;18.522;2023-05-08T07:17:59;18.20;92.90
22321;DHT22;11328;53.928;18.522;2023-05-08T07:20:26;18.50;92.20
22321;DHT22;11328;53.928;18.522;2023-05-08T07:22:53;18.80;92.10
22321;DHT22;11328;53.928;18.522;2023-05-08T07:25:20;19.00;91.30
22321;DHT22;11328;53.928;18.522;2023-05-08T07:27:47;19.20;90.10
22321;DHT22;11328;53.928;18.522;2023-05-08T07:30:14;19.40;88.90
22321;DHT22;11328;53.928;18.522;2023-05-08T07:32:41;19.50;88.30
22321;DHT22;11328;53.928;18.522;2023-05-08T07:35:08;19.70;87.40
22321;DHT22;11328;53.928;18.522;2023-05-08T07:37:40;19.90;85.00
22321;DHT22;11328;53.928;18.522;2023-05-08T07:40:07;20.00;84.30
22321;DHT22;11328;53.928;18.522;2023-05-08T07:42:41;20.10;80.70
22321;DHT22;11328;53.928;18.522;2023-05-08T07:45:10;20.30;80.40
22321;DHT22;11328;53.928;18.522;2023-05-08T07:47:48;20.40;81.90
22321;DHT22;11328;53.928;18.522;2023-05-08T07:50:16;20.50;79.90
22321;DHT22;11328;53.928;18.522;2023-05-08T07:52:43;20.60;80.70
22321;DHT22;11328;53.928;18.522;2023-05-08T07:55:12;20.70;80.50
22321;DHT22;11328;53.928;18.522;2023-05-08T07:57:41;20.80;80.70
22321;DHT22;11328;53.928;18.522;2023-05-08T08:00:13;20.70;78.30
22321;DHT22;11328;53.928;18.522;2023-05-08T08:02:41;20.80;74.50
22321;DHT22;11328;53.928;18.522;2023-05-08T08:05:09;21.00;76.10
22321;DHT22;11328;53.928;18.522;2023-05-08T08:07:37;21.10;74.60
22321;DHT22;11328;53.928;18.522;2023-05-08T08:10:04;21.00;76.60
22321;DHT22;11328;53.928;18.522;2023-05-08T08:12:32;21.10;75.20
22321;DHT22;11328;53.928;18.522;2023-05-08T08:14:59;21.10;71.20
22321;DHT22;11328;53.928;18.522;2023-05-08T08:17:26;21.30;72.90
22321;DHT22;11328;53.928;18.522;2023-05-08T08:19:54;21.40;70.00
22321;DHT22;11328;53.928;18.522;2023-05-08T08:22:23;21.50;69.00
22321;DHT22;11328;53.928;18.522;2023-05-08T08:24:53;21.50;67.70
22321;DHT22;11328;53.928;18.522;2023-05-08T08:27:22;21.50;65.70
22321;DHT22;11328;53.928;18.522;2023-05-08T08:29:49;21.60;64.40
22321;DHT22;11328;53.928;18.522;2023-05-08T08:32:20;21.80;65.70
22321;DHT22;11328;53.928;18.522;2023-05-08T08:34:46;21.80;69.00
22321;DHT22;11328;53.928;18.522;2023-05-08T08:37:13;21.90;68.40
22321;DHT22;11328;53.928;18.522;2023-05-08T08:39:40;21.90;67.50
22321;DHT22;11328;53.928;18.522;2023-05-08T08:42:07;21.70;67.90
22321;DHT22;11328;53.928;18.522;2023-05-08T08:44:34;21.80;69.10
22321;DHT22;11328;53.928;18.522;2023-05-08T08:47:04;21.80;66.90
22321;DHT22;11328;53.928;18.522;2023-05-08T08:49:41;21.80;66.50
22321;DHT22;11328;53.928;18.522;2023-05-08T08:52:40;21.90;64.70
22321;DHT22;11328;53.928;18.522;2023-05-08T08:55:17;21.70;67.00
22321;DHT22;11328;53.928;18.522;2023-05-08T08:58:02;21.50;66.10
22321;DHT22;11328;53.928;18.522;2023-05-08T09:00:40;21.80;66.60
22321;DHT22;11328;53.928;18.522;2023-05-08T09:03:07;21.90;68.00
22321;DHT22;11328;53.928;18.522;2023-05-08T09:05:35;21.90;69.20
22321;DHT22;11328;53.928;18.522;2023-05-08T09:08:03;21.90;67.90
22321;DHT22;11328;53.928;18.522;2023-05-08T09:10:31;22.10;64.70
22321;DHT22;11328;53.928;18.522;2023-05-08T09:13:01;22.10;64.10
22321;DHT22;11328;53.928;18.522;2023-05-08T09:15:31;22.00;62.30
22321;DHT22;11328;53.928;18.522;2023-05-08T09:18:01;21.70;61.50
22321;DHT22;11328;53.928;18.522;2023-05-08T09:20:29;21.70;63.30
22321;DHT22;11328;53.928;18.522;2023-05-08T09:22:56;21.90;61.10
22321;DHT22;11328;53.928;18.522;2023-05-08T09:25:43;22.10;64.20
22321;DHT22;11328;53.928;18.522;2023-05-08T09:28:19;22.10;58.90
22321;DHT22;11328;53.928;18.522;2023-05-08T09:30:52;22.20;61.40
22321;DHT22;11328;53.928;18.522;2023-05-08T09:33:27;22.30;62.60
22321;DHT22;11328;53.928;18.522;2023-05-08T09:35:56;22.30;60.30
22321;DHT22;11328;53.928;18.522;2023-05-08T09:38:37;22.10;62.30
22321;DHT22;11328;53.928;18.522;2023-05-08T09:41:06;22.20;60.90
22321;DHT22;11328;53.928;18.522;2023-05-08T09:43:37;22.20;62.10
22321;DHT22;11328;53.928;18.522;2023-05-08T09:46:23;22.40;62.50
22321;DHT22;11328;53.928;18.522;2023-05-08T09:48:54;22.60;60.40
22321;DHT22;11328;53.928;18.522;2023-05-08T09:51:23;22.70;59.50
22321;DHT22;11328;53.928;18.522;2023-05-08T09:53:56;22.40;58.30
22321;DHT22;11328;53.928;18.522;2023-05-08T09:56:29;22.20;59.80
22321;DHT22;11328;53.928;18.522;2023-05-08T09:59:04;22.40;61.70
22321;DHT22;11328;53.928;18.522;2023-05-08T10:01:48;22.40;63.30
22321;DHT22;11328;53.928;18.522;2023-05-08T10:04:15;22.30;61.40
22321;DHT22;11328;53.928;18.522;2023-05-08T10:06:42;22.30;61.00
22321;DHT22;11328;53.928;18.522;2023-05-08T10:09:11;22.10;63.10
22321;DHT22;11328;53.928;18.522;2023-05-08T10:11:41;22.00;61.40
22321;DHT22;11328;53.928;18.522;2023-05-08T10:14:19;21.90;60.30
22321;DHT22;11328;53.928;18.522;2023-05-08T10:16:50;22.10;62.00
22321;DHT22;11328;53.928;18.522;2023-05-08T10:19:20;22.50;62.30
22321;DHT22;11328;53.928;18.522;2023-05-08T10:21:53;22.80;61.50
22321;DHT22;11328;53.928;18.522;2023-05-08T10:24:26;22.90;60.40
22321;DHT22;11328;53.928;18.522;2023-05-08T10:27:19;23.00;60.60
22321;DHT22;11328;53.928;18.522;2023-05-08T10:29:55;23.20;59.50
22321;DHT22;11328;53.928;18.522;2023-05-08T10:32:27;23.10;61.10
22321;DHT22;11328;53.928;18.522;2023-05-08T10:35:02;23.20;59.70
22321;DHT22;11328;53.928;18.522;2023-05-08T10:37:32;23.20;60.30
22321;DHT22;11328;53.928;18.522;2023-05-08T10:40:02;23.20;59.00
22321;DHT22;11328;53.928;18.522;2023-05-08T10:42:33;23.20;58.60
22321;DHT22;11328;53.928;18.522;2023-05-08T10:45:04;23.30;57.90
22321;DHT22;11328;53.928;18.522;2023-05-08T10:53:43;23.70;60.90
22321;DHT22;11328;53.928;18.522;2023-05-08T10:56:16;23.60;58.50
22321;DHT22;11328;53.928;18.522;2023-05-08T10:58:43;23.60;59.30
22321;DHT22;11328;53.928;18.522;2023-05-08T11:01:10;23.60;59.60
22321;DHT22;11328;53.928;18.522;2023-05-08T11:03:44;23.50;59.30
22321;DHT22;11328;53.928;18.522;2023-05-08T11:06:12;23.60;58.10
22321;DHT22;11328;53.928;18.522;2023-05-08T11:08:50;23.60;57.50
22321;DHT22;11328;53.928;18.522;2023-05-08T11:14:01;23.80;58.30
22321;DHT22;11328;53.928;18.522;2023-05-08T11:19:23;23.70;58.40
22321;DHT22;11328;53.928;18.522;2023-05-08T11:24:39;23.80;58.00
22321;DHT22;11328;53.928;18.522;2023-05-08T11:27:12;23.70;59.30
22321;DHT22;11328;53.928;18.522;2023-05-08T11:29:40;23.80;58.50
22321;DHT22;11328;53.928;18.522;2023-05-08T11:32:07;23.80;58.10
22321;DHT22;11328;53.928;18.522;2023-05-08T11:34:44;23.60;58.60
22321;DHT22;11328;53.928;18.522;2023-05-08T11:37:22;23.20;57.50
22321;DHT22;11328;53.928;18.522;2023-05-08T11:39:50;23.10;59.00
22321;DHT22;11328;53.928;18.522;2023-05-08T11:47:38;22.80;56.50
22321;DHT22;11328;53.928;18.522;2023-05-08T11:50:08;22.60;57.40
22321;DHT22;11328;53.928;18.522;2023-05-08T11:52:37;22.50;56.40
22321;DHT22;11328;53.928;18.522;2023-05-08T11:55:10;22.70;57.30
22321;DHT22;11328;53.928;18.522;2023-05-08T11:57:38;23.00;56.80
22321;DHT22;11328;53.928;18.522;2023-05-08T12:00:09;23.00;57.50
22321;DHT22;11328;53.928;18.522;2023-05-08T12:02:42;22.90;58.60
22321;DHT22;11328;53.928;18.522;2023-05-08T12:05:12;22.80;60.00
22321;DHT22;11328;53.928;18.522;2023-05-08T12:07:43;22.80;58.30
22321;DHT22;11328;53.928;18.522;2023-05-08T12:10:13;22.70;58.70
22321;DHT22;11328;53.928;18.522;2023-05-08T12:12:43;22.60;57.50
22321;DHT22;11328;53.928;18.522;2023-05-08T12:15:12;22.40;57.30
22321;DHT22;11328;53.928;18.522;2023-05-08T12:17:41;22.30;57.60
22321;DHT22;11328;53.928;18.522;2023-05-08T12:20:15;22.30;57.70
22321;DHT22;11328;53.928;18.522;2023-05-08T12:22:50;22.50;58.20
22321;DHT22;11328;53.928;18.522;2023-05-08T12:25:19;22.60;58.50
22321;DHT22;11328;53.928;18.522;2023-05-08T12:27:46;22.50;58.00
22321;DHT22;11328;53.928;18.522;2023-05-08T12:30:13;22.40;58.20
22321;DHT22;11328;53.928;18.522;2023-05-08T12:32:43;22.50;57.10
22321;DHT22;11328;53.928;18.522;2023-05-08T12:35:13;22.60;57.90
22321;DHT22;11328;53.928;18.522;2023-05-08T12:37:40;22.50;57.30
22321;DHT22;11328;53.928;18.522;2023-05-08T12:40:07;22.50;57.50
22321;DHT22;11328;53.928;18.522;2023-05-08T12:42:50;22.30;56.80
22321;DHT22;11328;53.928;18.522;2023-05-08T12:45:18;22.20;59.10
22321;DHT22;11328;53.928;18.522;2023-05-08T12:47:58;22.20;58.70
22321;DHT22;11328;53.928;18.522;2023-05-08T12:50:26;22.10;59.10
22321;DHT22;11328;53.928;18.522;2023-05-08T12:53:22;22.00;59.20
22321;DHT22;11328;53.928;18.522;2023-05-08T12:55:54;22.00;58.30
22321;DHT22;11328;53.928;18.522;2023-05-08T12:58:25;21.90;58.10
22321;DHT22;11328;53.928;18.522;2023-05-08T13:00:53;21.90;58.80
22321;DHT22;11328;53.928;18.522;2023-05-08T13:03:30;22.00;60.00
22321;DHT22;11328;53.928;18.522;2023-05-08T13:05:58;22.00;59.30
22321;DHT22;11328;53.928;18.522;2023-05-08T13:08:36;21.90;58.10
22321;DHT22;11328;53.928;18.522;2023-05-08T13:11:05;22.00;59.00
22321;DHT22;11328;53.928;18.522;2023-05-08T13:13:33;22.00;59.60
22321;DHT22;11328;53.928;18.522;2023-05-08T13:16:03;22.10;59.10
22321;DHT22;11328;53.928;18.522;2023-05-08T13:18:32;22.20;59.30
22321;DHT22;11328;53.928;18.522;2023-05-08T13:21:02;22.00;57.60
22321;DHT22;11328;53.928;18.522;2023-05-08T13:23:29;22.00;59.00
22321;DHT22;11328;53.928;18.522;2023-05-08T13:25:56;21.90;56.60
22321;DHT22;11328;53.928;18.522;2023-05-08T13:28:23;22.00;56.20
22321;DHT22;11328;53.928;18.522;2023-05-08T13:30:50;22.00;57.00
22321;DHT22;11328;53.928;18.522;2023-05-08T13:33:16;22.10;56.50
22321;DHT22;11328;53.928;18.522;2023-05-08T13:35:43;22.20;58.30
22321;DHT22;11328;53.928;18.522;2023-05-08T13:38:11;22.20;58.60
22321;DHT22;11328;53.928;18.522;2023-05-08T13:40:40;22.10;59.40
22321;DHT22;11328;53.928;18.522;2023-05-08T13:43:07;21.90;58.60
22321;DHT22;11328;53.928;18.522;2023-05-08T13:45:34;21.90;57.60
22321;DHT22;11328;53.928;18.522;2023-05-08T13:48:01;21.80;57.90
22321;DHT22;11328;53.928;18.522;2023-05-08T13:50:28;21.70;58.30
22321;DHT22;11328;53.928;18.522;2023-05-08T13:52:55;21.80;58.20
22321;DHT22;11328;53.928;18.522;2023-05-08T13:55:22;21.70;59.00
22321;DHT22;11328;53.928;18.522;2023-05-08T13:57:49;21.60;58.10
22321;DHT22;11328;53.928;18.522;2023-05-08T14:00:17;21.60;57.90
22321;DHT22;11328;53.928;18.522;2023-05-08T14:02:44;21.70;58.20
22321;DHT22;11328;53.928;18.522;2023-05-08T14:05:11;21.70;59.20
22321;DHT22;11328;53.928;18.522;2023-05-08T14:07:39;21.80;60.20
22321;DHT22;11328;53.928;18.522;2023-05-08T14:10:06;21.90;59.50
22321;DHT22;11328;53.928;18.522;2023-05-08T14:12:33;21.90;58.70
22321;DHT22;11328;53.928;18.522;2023-05-08T14:15:04;21.90;59.60
22321;DHT22;11328;53.928;18.522;2023-05-08T14:17:31;22.00;58.20
22321;DHT22;11328;53.928;18.522;2023-05-08T14:19:59;22.00;59.10
22321;DHT22;11328;53.928;18.522;2023-05-08T14:22:26;22.00;58.50
22321;DHT22;11328;53.928;18.522;2023-05-08T14:24:53;22.00;58.60
22321;DHT22;11328;53.928;18.522;2023-05-08T14:27:20;21.90;58.20
22321;DHT22;11328;53.928;18.522;2023-05-08T14:29:47;21.90;57.30
22321;DHT22;11328;53.928;18.522;2023-05-08T14:32:14;21.90;56.10
22321;DHT22;11328;53.928;18.522;2023-05-08T14:34:41;21.80;55.40
22321;DHT22;11328;53.928;18.522;2023-05-08T14:37:08;21.80;55.50
22321;DHT22;11328;53.928;18.522;2023-05-08T14:39:38;21.90;56.20
22321;DHT22;11328;53.928;18.522;2023-05-08T14:42:05;22.00;57.10
22321;DHT22;11328;53.928;18.522;2023-05-08T14:44:48;21.90;56.10
22321;DHT22;11328;53.928;18.522;2023-05-08T14:47:15;21.70;57.60
22321;DHT22;11328;53.928;18.522;2023-05-08T14:49:42;21.60;56.90
22321;DHT22;11328;53.928;18.522;2023-05-08T14:52:09;21.60;58.00
22321;DHT22;11328;53.928;18.522;2023-05-08T14:54:36;21.60;59.40
22321;DHT22;11328;53.928;18.522;2023-05-08T14:57:03;21.50;60.40
22321;DHT22;11328;53.928;18.522;2023-05-08T14:59:30;21.60;61.40
22321;DHT22;11328;53.928;18.522;2023-05-08T15:01:57;21.60;59.00
22321;DHT22;11328;53.928;18.522;2023-05-08T15:04:24;21.70;58.90
22321;DHT22;11328;53.928;18.522;2023-05-08T15:06:51;21.80;58.90
22321;DHT22;11328;53.928;18.522;2023-05-08T15:09:18;21.60;58.30
22321;DHT22;11328;53.928;18.522;2023-05-08T15:11:44;21.60;57.50
22321;DHT22;11328;53.928;18.522;2023-05-08T15:14:11;21.70;58.80
22321;DHT22;11328;53.928;18.522;2023-05-08T15:16:38;21.60;58.10
22321;DHT22;11328;53.928;18.522;2023-05-08T15:19:05;21.60;58.40
22321;DHT22;11328;53.928;18.522;2023-05-08T15:21:34;21.60;59.00
22321;DHT22;11328;53.928;18.522;2023-05-08T15:24:01;21.60;57.70
22321;DHT22;11328;53.928;18.522;2023-05-08T15:26:28;21.60;58.60
22321;DHT22;11328;53.928;18.522;2023-05-08T15:28:55;21.60;59.00
22321;DHT22;11328;53.928;18.522;2023-05-08T15:31:24;21.50;59.90
22321;DHT22;11328;53.928;18.522;2023-05-08T15:33:51;21.30;59.50
22321;DHT22;11328;53.928;18.522;2023-05-08T15:36:18;21.30;58.80
22321;DHT22;11328;53.928;18.522;2023-05-08T15:38:44;21.30;58.40
22321;DHT22;11328;53.928;18.522;2023-05-08T15:41:14;21.30;59.30
22321;DHT22;11328;53.928;18.522;2023-05-08T15:43:41;21.20;59.80
22321;DHT22;11328;53.928;18.522;2023-05-08T15:46:10;21.20;57.80
22321;DHT22;11328;53.928;18.522;2023-05-08T15:48:37;21.20;58.90
22321;DHT22;11328;53.928;18.522;2023-05-08T15:51:04;21.20;60.00
22321;DHT22;11328;53.928;18.522;2023-05-08T15:53:32;21.00;58.90
22321;DHT22;11328;53.928;18.522;2023-05-08T15:56:00;21.00;58.30
22321;DHT22;11328;53.928;18.522;2023-05-08T15:58:26;21.00;58.40
22321;DHT22;11328;53.928;18.522;2023-05-08T16:00:54;20.80;59.40
22321;DHT22;11328;53.928;18.522;2023-05-08T16:03:22;20.70;60.90
22321;DHT22;11328;53.928;18.522;2023-05-08T16:05:50;20.60;58.70
22321;DHT22;11328;53.928;18.522;2023-05-08T16:08:17;20.60;60.50
22321;DHT22;11328;53.928;18.522;2023-05-08T16:10:43;20.40;60.00
22321;DHT22;11328;53.928;18.522;2023-05-08T16:13:10;20.40;58.60
22321;DHT22;11328;53.928;18.522;2023-05-08T16:15:37;20.40;58.80
22321;DHT22;11328;53.928;18.522;2023-05-08T16:18:04;20.30;61.50
22321;DHT22;11328;53.928;18.522;2023-05-08T16:20:35;20.20;60.40
22321;DHT22;11328;53.928;18.522;2023-05-08T16:23:02;20.20;59.20
22321;DHT22;11328;53.928;18.522;2023-05-08T16:25:29;20.20;59.70